sensor_id;sensor_type;location;lat;lon;timestamp;temperature;humidity
14604;DHT22;7388;51.078;13.740;2022-10-24T00:01:13;18.50;53.70
14604;DHT22;7388;51.078;13.740;2022-10-24T00:03:39;18.50;53.70
14604;DHT22;7388;51.078;13.740;2022-10-24T00:06:07;18.50;53.60
14604;DHT22;7388;51.078;13.740;2022-10-24T00:08:34;18.40;53.50
14604;DHT22;7388;51.078;13.740;2022-10-24T00:11:00;18.40;53.50
14604;DHT22;7388;51.078;13.740;2022-10-24T00:13:26;18.40;53.40
14604;DHT22;7388;51.078;13.740;2022-10-24T00:15:51;18.30;53.40
14604;DHT22;7388;51.078;13.740;2022-10-24T00:18:17;18.30;53.40
14604;DHT22;7388;51.078;13.740;2022-10-24T00:20:43;18.40;53.20
14604;DHT22;7388;51.078;13.740;2022-10-24T00:23:10;18.30;53.30
14604;DHT22;7388;51.078;13.740;2022-10-24T00:25:38;18.30;53.50
14604;DHT22;7388;51.078;13.740;2022-10-24T00:28:04;18.30;54.10
14604;DHT22;7388;51.078;13.740;2022-10-24T00:30:30;18.30;53.40
14604;DHT22;7388;51.078;13.740;2022-10-24T00:32:56;18.30;53.40
14604;DHT22;7388;51.078;13.740;2022-10-24T00:35:21;18.30;53.50
14604;DHT22;7388;51.078;13.740;2022-10-24T00:37:47;18.20;53.50
14604;DHT22;7388;51.078;13.740;2022-10-24T00:40:16;18.20;53.50
14604;DHT22;7388;51.078;13.740;2022-10-24T00:42:43;18.20;53.50
14604;DHT22;7388;51.078;13.740;2022-10-24T00:45:35;18.20;53.60
14604;DHT22;7388;51.078;13.740;2022-10-24T00:48:02;18.30;53.40
14604;DHT22;7388;51.078;13.740;2022-10-24T00:50:33;18.30;53.40
14604;DHT22;7388;51.078;13.740;2022-10-24T00:52:59;18.30;53.30
14604;DHT22;7388;51.078;13.740;2022-10-24T00:55:25;18.30;53.40
14604;DHT22;7388;51.078;13.740;2022-10-24T00:57:53;18.20;53.30
14604;DHT22;7388;51.078;13.740;2022-10-24T01:00:29;18.20;53.20
14604;DHT22;7388;51.078;13.740;2022-10-24T01:02:55;18.20;53.30
14604;DHT22;7388;51.078;13.740;2022-10-24T01:05:22;18.20;53.30
14604;DHT22;7388;51.078;13.740;2022-10-24T01:10:37;18.30;53.00
14604;DHT22;7388;51.078;13.740;2022-10-24T01:16:10;18.30;53.00
14604;DHT22;7388;51.078;13.740;2022-10-24T01:18:49;18.30;53.00
14604;DHT22;7388;51.078;13.740;2022-10-24T01:21:55;18.30;53.10
14604;DHT22;7388;51.078;13.740;2022-10-24T01:27:38;18.30;53.00
14604;DHT22;7388;51.078;13.740;2022-10-24T01:30:11;18.30;53.00
14604;DHT22;7388;51.078;13.740;2022-10-24T01:33:05;18.20;53.00
14604;DHT22;7388;51.078;13.740;2022-10-24T01:35:38;18.30;53.00
14604;DHT22;7388;51.078;13.740;2022-10-24T01:38:51;18.20;53.10
14604;DHT22;7388;51.078;13.740;2022-10-24T01:41:21;18.30;52.90
14604;DHT22;7388;51.078;13.740;2022-10-24T01:43:58;18.20;52.90
14604;DHT22;7388;51.078;13.740;2022-10-24T01:46:29;18.30;52.90
14604;DHT22;7388;51.078;13.740;2022-10-24T01:49:02;18.30;52.90
14604;DHT22;7388;51.078;13.740;2022-10-24T01:51:31;18.30;52.80
14604;DHT22;7388;51.078;13.740;2022-10-24T01:53:58;18.30;52.60
14604;DHT22;7388;51.078;13.740;2022-10-24T01:56:25;18.40;52.50
14604;DHT22;7388;51.078;13.740;2022-10-24T01:58:51;18.30;52.60
14604;DHT22;7388;51.078;13.740;2022-10-24T02:01:21;18.30;52.60
14604;DHT22;7388;51.078;13.740;2022-10-24T02:03:56;18.30;52.50
14604;DHT22;7388;51.078;13.740;2022-10-24T02:06:34;18.30;52.40
14604;DHT22;7388;51.078;13.740;2022-10-24T02:09:09;18.30;52.30
14604;DHT22;7388;51.078;13.740;2022-10-24T02:11:36;18.30;52.40
14604;DHT22;7388;51.078;13.740;2022-10-24T02:14:09;18.30;52.30
14604;DHT22;7388;51.078;13.740;2022-10-24T02:16:39;18.30;52.50
14604;DHT22;7388;51.078;13.740;2022-10-24T02:19:05;18.20;52.30
14604;DHT22;7388;51.078;13.740;2022-10-24T02:21:44;18.20;52.30
14604;DHT22;7388;51.078;13.740;2022-10-24T02:24:20;18.20;52.40
14604;DHT22;7388;51.078;13.740;2022-10-24T02:26:53;18.20;52.30
14604;DHT22;7388;51.078;13.740;2022-10-24T02:29:48;18.20;52.40
14604;DHT22;7388;51.078;13.740;2022-10-24T02:32:24;18.20;52.30
14604;DHT22;7388;51.078;13.740;2022-10-24T02:34:51;18.20;52.20
14604;DHT22;7388;51.078;13.740;2022-10-24T02:37:18;18.20;52.20
14604;DHT22;7388;51.078;13.740;2022-10-24T02:39:46;18.10;52.20
14604;DHT22;7388;51.078;13.740;2022-10-24T02:42:13;18.10;52.20
14604;DHT22;7388;51.078;13.740;2022-10-24T02:44:41;18.10;52.20
14604;DHT22;7388;51.078;13.740;2022-10-24T02:47:10;18.10;52.10
14604;DHT22;7388;51.078;13.740;2022-10-24T02:49:37;18.10;52.10
14604;DHT22;7388;51.078;13.740;2022-10-24T02:52:03;18.00;52.00
14604;DHT22;7388;51.078;13.740;2022-10-24T02:54:29;18.10;52.10
14604;DHT22;7388;51.078;13.740;2022-10-24T02:56:58;18.00;52.10
14604;DHT22;7388;51.078;13.740;2022-10-24T02:59:24;18.00;52.20
14604;DHT22;7388;51.078;13.740;2022-10-24T03:01:50;18.00;52.30
14604;DHT22;7388;51.078;13.740;2022-10-24T03:04:16;18.00;52.40
14604;DHT22;7388;51.078;13.740;2022-10-24T03:06:41;18.00;52.40
14604;DHT22;7388;51.078;13.740;2022-10-24T03:09:07;18.00;52.60
14604;DHT22;7388;51.078;13.740;2022-10-24T03:11:36;18.10;52.70
14604;DHT22;7388;51.078;13.740;2022-10-24T03:14:02;18.10;52.60
14604;DHT22;7388;51.078;13.740;2022-10-24T03:16:27;18.10;52.50
14604;DHT22;7388;51.078;13.740;2022-10-24T03:18:54;18.20;52.40
14604;DHT22;7388;51.078;13.740;2022-10-24T03:21:20;18.20;52.40
14604;DHT22;7388;51.078;13.740;2022-10-24T03:23:46;18.20;52.40
14604;DHT22;7388;51.078;13.740;2022-10-24T03:26:12;18.20;52.30
14604;DHT22;7388;51.078;13.740;2022-10-24T03:28:38;18.30;52.30
14604;DHT22;7388;51.078;13.740;2022-10-24T03:31:04;18.30;52.20
14604;DHT22;7388;51.078;13.740;2022-10-24T03:33:30;18.30;52.20
14604;DHT22;7388;51.078;13.740;2022-10-24T03:35:56;18.30;52.10
14604;DHT22;7388;51.078;13.740;2022-10-24T03:38:22;18.30;52.10
14604;DHT22;7388;51.078;13.740;2022-10-24T03:40:49;18.30;52.10
14604;DHT22;7388;51.078;13.740;2022-10-24T03:43:16;18.30;51.90
14604;DHT22;7388;51.078;13.740;2022-10-24T03:45:42;18.30;51.90
14604;DHT22;7388;51.078;13.740;2022-10-24T03:48:08;18.30;51.90
14604;DHT22;7388;51.078;13.740;2022-10-24T03:50:34;18.20;51.70
14604;DHT22;7388;51.078;13.740;2022-10-24T03:53:00;18.20;51.70
14604;DHT22;7388;51.078;13.740;2022-10-24T03:55:27;18.20;51.60
14604;DHT22;7388;51.078;13.740;2022-10-24T03:57:52;18.10;51.70
14604;DHT22;7388;51.078;13.740;2022-10-24T04:00:18;18.00;51.70
14604;DHT22;7388;51.078;13.740;2022-10-24T04:02:45;18.00;51.90
14604;DHT22;7388;51.078;13.740;2022-10-24T04:05:11;18.00;51.80
14604;DHT22;7388;51.078;13.740;2022-10-24T04:07:37;18.00;51.80
14604;DHT22;7388;51.078;13.740;2022-10-24T04:10:04;18.00;51.90
14604;DHT22;7388;51.078;13.740;2022-10-24T04:12:30;18.00;51.80
14604;DHT22;7388;51.078;13.740;2022-10-24T04:14:56;17.90;51.80
14604;DHT22;7388;51.078;13.740;2022-10-24T04:17:22;17.90;51.80
14604;DHT22;7388;51.078;13.740;2022-10-24T04:19:48;17.90;51.70
14604;DHT22;7388;51.078;13.740;2022-10-24T04:22:13;17.90;51.60
14604;DHT22;7388;51.078;13.740;2022-10-24T04:24:39;17.90;51.70
14604;DHT22;7388;51.078;13.740;2022-10-24T04:27:08;17.80;51.50
14604;DHT22;7388;51.078;13.740;2022-10-24T04:29:34;17.80;51.50
14604;DHT22;7388;51.078;13.740;2022-10-24T04:32:00;17.80;51.50
14604;DHT22;7388;51.078;13.740;2022-10-24T04:34:26;17.70;51.40
14604;DHT22;7388;51.078;13.740;2022-10-24T04:36:52;17.70;51.50
14604;DHT22;7388;51.078;13.740;2022-10-24T04:39:17;17.70;51.50
14604;DHT22;7388;51.078;13.740;2022-10-24T04:41:44;17.60;51.50
14604;DHT22;7388;51.078;13.740;2022-10-24T04:44:10;17.60;51.70
14604;DHT22;7388;51.078;13.740;2022-10-24T04:46:36;17.60;51.80
14604;DHT22;7388;51.078;13.740;2022-10-24T04:49:02;17.50;52.40
14604;DHT22;7388;51.078;13.740;2022-10-24T04:51:28;17.50;52.30
14604;DHT22;7388;51.078;13.740;2022-10-24T04:53:54;17.50;52.30
14604;DHT22;7388;51.078;13.740;2022-10-24T04:56:20;17.50;52.30
14604;DHT22;7388;51.078;13.740;2022-10-24T04:58:46;17.50;52.30
14604;DHT22;7388;51.078;13.740;2022-10-24T05:01:12;17.50;52.20
14604;DHT22;7388;51.078;13.740;2022-10-24T05:03:37;17.50;52.00
14604;DHT22;7388;51.078;13.740;2022-10-24T05:06:03;17.50;52.00
14604;DHT22;7388;51.078;13.740;2022-10-24T05:08:29;17.50;52.10
14604;DHT22;7388;51.078;13.740;2022-10-24T05:10:55;17.50;52.00
14604;DHT22;7388;51.078;13.740;2022-10-24T05:13:21;17.50;52.00
14604;DHT22;7388;51.078;13.740;2022-10-24T05:15:46;17.50;52.10
14604;DHT22;7388;51.078;13.740;2022-10-24T05:18:12;17.50;52.10
14604;DHT22;7388;51.078;13.740;2022-10-24T05:20:38;17.50;52.00
14604;DHT22;7388;51.078;13.740;2022-10-24T05:23:04;17.60;52.10
14604;DHT22;7388;51.078;13.740;2022-10-24T05:25:29;17.50;51.90
14604;DHT22;7388;51.078;13.740;2022-10-24T05:27:55;17.50;51.90
14604;DHT22;7388;51.078;13.740;2022-10-24T05:30:21;17.50;51.90
14604;DHT22;7388;51.078;13.740;2022-10-24T05:32:47;17.50;52.00
14604;DHT22;7388;51.078;13.740;2022-10-24T05:35:13;17.50;52.10
14604;DHT22;7388;51.078;13.740;2022-10-24T05:37:39;17.50;52.30
14604;DHT22;7388;51.078;13.740;2022-10-24T05:40:07;17.50;52.20
14604;DHT22;7388;51.078;13.740;2022-10-24T05:42:33;17.50;52.20
14604;DHT22;7388;51.078;13.740;2022-10-24T05:44:59;17.50;52.10
14604;DHT22;7388;51.078;13.740;2022-10-24T05:47:24;17.50;52.30
14604;DHT22;7388;51.078;13.740;2022-10-24T05:49:50;17.50;52.30
14604;DHT22;7388;51.078;13.740;2022-10-24T05:52:16;17.50;52.30
14604;DHT22;7388;51.078;13.740;2022-10-24T05:54:41;17.50;52.30
14604;DHT22;7388;51.078;13.740;2022-10-24T05:57:07;18.30;52.60
14604;DHT22;7388;51.078;13.740;2022-10-24T05:59:33;17.50;52.20
14604;DHT22;7388;51.078;13.740;2022-10-24T06:01:59;17.50;52.30
14604;DHT22;7388;51.078;13.740;2022-10-24T06:04:24;16.50;52.00
14604;DHT22;7388;51.078;13.740;2022-10-24T06:06:50;17.50;52.40
14604;DHT22;7388;51.078;13.740;2022-10-24T06:09:16;17.50;52.30
14604;DHT22;7388;51.078;13.740;2022-10-24T06:11:42;17.50;52.60
14604;DHT22;7388;51.078;13.740;2022-10-24T06:14:07;17.60;52.70
14604;DHT22;7388;51.078;13.740;2022-10-24T06:16:34;17.60;52.60
14604;DHT22;7388;51.078;13.740;2022-10-24T06:19:00;17.60;52.60
14604;DHT22;7388;51.078;13.740;2022-10-24T06:21:26;17.70;52.80
14604;DHT22;7388;51.078;13.740;2022-10-24T06:23:51;17.70;52.70
14604;DHT22;7388;51.078;13.740;2022-10-24T06:26:18;17.80;52.80
14604;DHT22;7388;51.078;13.740;2022-10-24T06:28:44;17.80;52.80
14604;DHT22;7388;51.078;13.740;2022-10-24T06:31:09;17.80;52.80
14604;DHT22;7388;51.078;13.740;2022-10-24T06:33:37;18.00;52.90
14604;DHT22;7388;51.078;13.740;2022-10-24T06:36:05;18.10;52.80
14604;DHT22;7388;51.078;13.740;2022-10-24T06:38:34;18.30;52.80
14604;DHT22;7388;51.078;13.740;2022-10-24T06:41:08;18.40;52.40
14604;DHT22;7388;51.078;13.740;2022-10-24T06:43:35;18.50;52.00
14604;DHT22;7388;51.078;13.740;2022-10-24T06:46:06;18.50;51.80
14604;DHT22;7388;51.078;13.740;2022-10-24T06:48:33;18.50;51.70
14604;DHT22;7388;51.078;13.740;2022-10-24T06:50:59;18.50;51.90
14604;DHT22;7388;51.078;13.740;2022-10-24T06:53:25;18.50;51.90
14604;DHT22;7388;51.078;13.740;2022-10-24T06:55:51;18.60;52.00
14604;DHT22;7388;51.078;13.740;2022-10-24T06:58:17;18.70;52.00
14604;DHT22;7388;51.078;13.740;2022-10-24T07:00:43;18.80;51.90
14604;DHT22;7388;51.078;13.740;2022-10-24T07:03:14;18.90;51.80
14604;DHT22;7388;51.078;13.740;2022-10-24T07:05:40;19.00;51.40
14604;DHT22;7388;51.078;13.740;2022-10-24T07:08:06;19.10;51.40
14604;DHT22;7388;51.078;13.740;2022-10-24T07:10:31;19.20;51.10
14604;DHT22;7388;51.078;13.740;2022-10-24T07:12:57;19.30;51.00
14604;DHT22;7388;51.078;13.740;2022-10-24T07:15:23;19.30;50.90
14604;DHT22;7388;51.078;13.740;2022-10-24T07:17:49;19.40;50.80
14604;DHT22;7388;51.078;13.740;2022-10-24T07:20:15;19.50;50.90
14604;DHT22;7388;51.078;13.740;2022-10-24T07:22:41;19.60;50.80
14604;DHT22;7388;51.078;13.740;2022-10-24T07:25:07;19.90;50.90
14604;DHT22;7388;51.078;13.740;2022-10-24T07:27:33;20.30;50.00
14604;DHT22;7388;51.078;13.740;2022-10-24T07:29:59;20.70;49.50
14604;DHT22;7388;51.078;13.740;2022-10-24T07:32:25;20.70;48.40
14604;DHT22;7388;51.078;13.740;2022-10-24T07:34:51;20.70;48.40
14604;DHT22;7388;51.078;13.740;2022-10-24T07:37:17;20.80;48.40
14604;DHT22;7388;51.078;13.740;2022-10-24T07:39:43;20.80;48.60
14604;DHT22;7388;51.078;13.740;2022-10-24T07:42:12;20.80;48.20
14604;DHT22;7388;51.078;13.740;2022-10-24T07:44:38;20.60;47.90
14604;DHT22;7388;51.078;13.740;2022-10-24T07:47:04;20.60;48.30
14604;DHT22;7388;51.078;13.740;2022-10-24T07:49:35;20.60;48.50
14604;DHT22;7388;51.078;13.740;2022-10-24T07:52:01;20.70;48.30
14604;DHT22;7388;51.078;13.740;2022-10-24T07:54:26;20.80;48.60
14604;DHT22;7388;51.078;13.740;2022-10-24T07:56:53;21.00;48.60
14604;DHT22;7388;51.078;13.740;2022-10-24T07:59:19;21.10;48.40
14604;DHT22;7388;51.078;13.740;2022-10-24T08:01:45;21.30;47.30
14604;DHT22;7388;51.078;13.740;2022-10-24T08:04:10;21.60;47.00
14604;DHT22;7388;51.078;13.740;2022-10-24T08:06:37;21.80;47.40
14604;DHT22;7388;51.078;13.740;2022-10-24T08:09:03;21.90;46.20
14604;DHT22;7388;51.078;13.740;2022-10-24T08:11:30;21.90;45.90
14604;DHT22;7388;51.078;13.740;2022-10-24T08:13:57;21.80;45.40
14604;DHT22;7388;51.078;13.740;2022-10-24T08:16:23;21.80;46.10
14604;DHT22;7388;51.078;13.740;2022-10-24T08:18:51;21.70;46.30
14604;DHT22;7388;51.078;13.740;2022-10-24T08:21:19;21.60;46.20
14604;DHT22;7388;51.078;13.740;2022-10-24T08:23:48;21.50;46.30
14604;DHT22;7388;51.078;13.740;2022-10-24T08:26:16;21.40;46.50
14604;DHT22;7388;51.078;13.740;2022-10-24T08:28:43;21.40;46.80
14604;DHT22;7388;51.078;13.740;2022-10-24T08:31:12;21.30;47.10
14604;DHT22;7388;51.078;13.740;2022-10-24T08:33:38;21.20;47.00
14604;DHT22;7388;51.078;13.740;2022-10-24T08:36:11;21.20;47.30
14604;DHT22;7388;51.078;13.740;2022-10-24T08:38:38;21.20;47.50
14604;DHT22;7388;51.078;13.740;2022-10-24T08:41:05;21.20;47.70
14604;DHT22;7388;51.078;13.740;2022-10-24T08:43:31;21.20;48.00
14604;DHT22;7388;51.078;13.740;2022-10-24T08:48:54;21.20;47.40
14604;DHT22;7388;51.078;13.740;2022-10-24T08:54:31;21.10;47.80
14604;DHT22;7388;51.078;13.740;2022-10-24T08:56:58;21.10;48.00
14604;DHT22;7388;51.078;13.740;2022-10-24T08:59:28;21.10;48.20
14604;DHT22;7388;51.078;13.740;2022-10-24T09:01:59;21.10;48.20
14604;DHT22;7388;51.078;13.740;2022-10-24T09:04:28;21.20;48.30
14604;DHT22;7388;51.078;13.740;2022-10-24T09:06:56;21.30;48.10
14604;DHT22;7388;51.078;13.740;2022-10-24T09:09:36;21.30;48.30
14604;DHT22;7388;51.078;13.740;2022-10-24T09:12:18;21.40;48.30
14604;DHT22;7388;51.078;13.740;2022-10-24T09:14:47;21.40;48.10
14604;DHT22;7388;51.078;13.740;2022-10-24T09:17:33;21.50;48.20
14604;DHT22;7388;51.078;13.740;2022-10-24T09:20:19;21.60;48.10
14604;DHT22;7388;51.078;13.740;2022-10-24T09:22:46;21.60;48.10
14604;DHT22;7388;51.078;13.740;2022-10-24T09:25:15;21.60;48.10
14604;DHT22;7388;51.078;13.740;2022-10-24T09:27:42;21.60;47.80
14604;DHT22;7388;51.078;13.740;2022-10-24T09:30:20;21.70;48.00
14604;DHT22;7388;51.078;13.740;2022-10-24T09:32:46;21.70;48.20
14604;DHT22;7388;51.078;13.740;2022-10-24T09:35:18;21.70;48.00
14604;DHT22;7388;51.078;13.740;2022-10-24T09:37:48;21.70;47.90
14604;DHT22;7388;51.078;13.740;2022-10-24T09:47:44;21.80;48.00
14604;DHT22;7388;51.078;13.740;2022-10-24T09:50:21;21.80;48.00
14604;DHT22;7388;51.078;13.740;2022-10-24T09:52:49;21.90;47.90
14604;DHT22;7388;51.078;13.740;2022-10-24T09:55:22;21.90;47.60
14604;DHT22;7388;51.078;13.740;2022-10-24T09:57:54;22.00;47.40
14604;DHT22;7388;51.078;13.740;2022-10-24T10:00:30;22.10;47.60
14604;DHT22;7388;51.078;13.740;2022-10-24T10:03:25;22.20;47.70
14604;DHT22;7388;51.078;13.740;2022-10-24T10:06:03;22.40;47.70
14604;DHT22;7388;51.078;13.740;2022-10-24T10:08:38;22.50;46.30
14604;DHT22;7388;51.078;13.740;2022-10-24T10:13:33;22.70;46.40
14604;DHT22;7388;51.078;13.740;2022-10-24T10:16:04;22.80;46.10
14604;DHT22;7388;51.078;13.740;2022-10-24T10:19:03;22.80;46.40
14604;DHT22;7388;51.078;13.740;2022-10-24T10:24:42;22.80;45.80
14604;DHT22;7388;51.078;13.740;2022-10-24T10:32:56;22.80;46.10
14604;DHT22;7388;51.078;13.740;2022-10-24T10:44:15;22.80;46.20
14604;DHT22;7388;51.078;13.740;2022-10-24T10:49:36;22.80;46.70
14604;DHT22;7388;51.078;13.740;2022-10-24T10:52:32;22.80;46.40
14604;DHT22;7388;51.078;13.740;2022-10-24T11:06:15;22.80;47.30
14604;DHT22;7388;51.078;13.740;2022-10-24T11:11:36;22.80;46.50
14604;DHT22;7388;51.078;13.740;2022-10-24T11:14:18;22.70;46.50
14604;DHT22;7388;51.078;13.740;2022-10-24T11:16:47;22.70;46.60
14604;DHT22;7388;51.078;13.740;2022-10-24T11:22:18;22.70;46.80
14604;DHT22;7388;51.078;13.740;2022-10-24T11:24:50;22.70;46.00
14604;DHT22;7388;51.078;13.740;2022-10-24T11:27:27;22.70;45.70
14604;DHT22;7388;51.078;13.740;2022-10-24T11:30:28;22.70;45.80
14604;DHT22;7388;51.078;13.740;2022-10-24T11:32:58;22.70;46.00
14604;DHT22;7388;51.078;13.740;2022-10-24T11:35:33;22.80;46.20
14604;DHT22;7388;51.078;13.740;2022-10-24T11:38:06;22.70;46.40
14604;DHT22;7388;51.078;13.740;2022-10-24T11:40:34;22.80;46.40
14604;DHT22;7388;51.078;13.740;2022-10-24T11:43:23;22.70;46.60
14604;DHT22;7388;51.078;13.740;2022-10-24T11:45:58;22.80;46.40
14604;DHT22;7388;51.078;13.740;2022-10-24T11:48:37;22.70;46.60
14604;DHT22;7388;51.078;13.740;2022-10-24T11:56:22;22.60;47.30
14604;DHT22;7388;51.078;13.740;2022-10-24T11:59:02;22.60;47.50
14604;DHT22;7388;51.078;13.740;2022-10-24T12:20:25;22.40;47.80
14604;DHT22;7388;51.078;13.740;2022-10-24T12:22:52;22.40;47.70
14604;DHT22;7388;51.078;13.740;2022-10-24T12:25:33;22.40;47.50
14604;DHT22;7388;51.078;13.740;2022-10-24T12:28:05;22.40;46.90
14604;DHT22;7388;51.078;13.740;2022-10-24T12:30:34;22.40;46.50
14604;DHT22;7388;51.078;13.740;2022-10-24T12:33:25;22.50;45.90
14604;DHT22;7388;51.078;13.740;2022-10-24T12:35:52;22.50;45.50
14604;DHT22;7388;51.078;13.740;2022-10-24T12:41:01;22.50;45.90
14604;DHT22;7388;51.078;13.740;2022-10-24T12:43:43;22.40;45.90
14604;DHT22;7388;51.078;13.740;2022-10-24T12:48:47;22.40;46.00
14604;DHT22;7388;51.078;13.740;2022-10-24T12:51:34;22.40;45.80
14604;DHT22;7388;51.078;13.740;2022-10-24T13:07:57;22.40;46.30
14604;DHT22;7388;51.078;13.740;2022-10-24T13:18:55;22.40;46.30
14604;DHT22;7388;51.078;13.740;2022-10-24T13:21:29;22.40;46.40
14604;DHT22;7388;51.078;13.740;2022-10-24T13:24:21;22.40;46.30
14604;DHT22;7388;51.078;13.740;2022-10-24T13:37:39;22.40;40.30
14604;DHT22;7388;51.078;13.740;2022-10-24T13:45:32;22.40;36.10
14604;DHT22;7388;51.078;13.740;2022-10-24T13:48:06;22.50;38.40
14604;DHT22;7388;51.078;13.740;2022-10-24T13:50:37;22.50;36.80
14604;DHT22;7388;51.078;13.740;2022-10-24T13:53:26;22.50;36.80
14604;DHT22;7388;51.078;13.740;2022-10-24T13:55:54;22.50;37.20
14604;DHT22;7388;51.078;13.740;2022-10-24T13:58:23;22.50;38.10
14604;DHT22;7388;51.078;13.740;2022-10-24T14:01:02;22.50;38.50
14604;DHT22;7388;51.078;13.740;2022-10-24T14:03:29;22.60;39.20
14604;DHT22;7388;51.078;13.740;2022-10-24T14:05:57;22.60;38.60
14604;DHT22;7388;51.078;13.740;2022-10-24T14:11:04;22.50;39.60
14604;DHT22;7388;51.078;13.740;2022-10-24T14:13:33;22.50;39.70
14604;DHT22;7388;51.078;13.740;2022-10-24T14:16:02;22.50;40.00
14604;DHT22;7388;51.078;13.740;2022-10-24T14:18:29;22.40;39.90
14604;DHT22;7388;51.078;13.740;2022-10-24T14:20:58;22.40;40.20
14604;DHT22;7388;51.078;13.740;2022-10-24T14:23:27;22.40;40.60
14604;DHT22;7388;51.078;13.740;2022-10-24T14:26:14;22.30;41.50
14604;DHT22;7388;51.078;13.740;2022-10-24T14:28:47;22.20;41.40
14604;DHT22;7388;51.078;13.740;2022-10-24T14:31:29;22.20;42.10
14604;DHT22;7388;51.078;13.740;2022-10-24T14:33:57;22.20;42.30
14604;DHT22;7388;51.078;13.740;2022-10-24T14:36:26;22.10;42.80
14604;DHT22;7388;51.078;13.740;2022-10-24T14:38:53;22.10;43.00
14604;DHT22;7388;51.078;13.740;2022-10-24T14:41:34;22.00;42.80
14604;DHT22;7388;51.078;13.740;2022-10-24T14:44:04;22.00;42.70
14604;DHT22;7388;51.078;13.740;2022-10-24T14:46:39;22.00;42.30
14604;DHT22;7388;51.078;13.740;2022-10-24T14:52:18;22.00;42.90
14604;DHT22;7388;51.078;13.740;2022-10-24T14:55:05;21.90;43.00
14604;DHT22;7388;51.078;13.740;2022-10-24T14:57:33;21.90;43.20
14604;DHT22;7388;51.078;13.740;2022-10-24T15:00:02;21.90;43.60
14604;DHT22;7388;51.078;13.740;2022-10-24T15:02:39;21.80;43.80
14604;DHT22;7388;51.078;13.740;2022-10-24T15:05:30;21.80;44.20
14604;DHT22;7388;51.078;13.740;2022-10-24T15:10:37;21.60;44.60
14604;DHT22;7388;51.078;13.740;2022-10-24T15:13:23;21.60;44.70
14604;DHT22;7388;51.078;13.740;2022-10-24T15:15:56;21.60;45.20
14604;DHT22;7388;51.078;13.740;2022-10-24T15:18:30;21.50;45.20
14604;DHT22;7388;51.078;13.740;2022-10-24T15:21:05;21.50;45.30
14604;DHT22;7388;51.078;13.740;2022-10-24T15:23:35;21.40;45.40
14604;DHT22;7388;51.078;13.740;2022-10-24T15:26:10;21.40;45.60
14604;DHT22;7388;51.078;13.740;2022-10-24T15:31:31;21.30;45.60
14604;DHT22;7388;51.078;13.740;2022-10-24T15:33:57;21.20;45.90
14604;DHT22;7388;51.078;13.740;2022-10-24T15:36:29;21.20;46.00
14604;DHT22;7388;51.078;13.740;2022-10-24T15:38:57;21.20;45.80
14604;DHT22;7388;51.078;13.740;2022-10-24T15:41:24;21.10;45.40
14604;DHT22;7388;51.078;13.740;2022-10-24T15:43:52;21.10;45.20
14604;DHT22;7388;51.078;13.740;2022-10-24T15:46:17;21.10;44.20
14604;DHT22;7388;51.078;13.740;2022-10-24T15:48:44;21.10;44.00
14604;DHT22;7388;51.078;13.740;2022-10-24T15:51:16;21.10;43.40
14604;DHT22;7388;51.078;13.740;2022-10-24T15:53:44;21.10;42.90
14604;DHT22;7388;51.078;13.740;2022-10-24T15:56:11;21.00;42.50
14604;DHT22;7388;51.078;13.740;2022-10-24T15:58:38;21.00;42.80
14604;DHT22;7388;51.078;13.740;2022-10-24T16:01:04;21.00;42.30
14604;DHT22;7388;51.078;13.740;2022-10-24T16:03:31;21.00;42.20
14604;DHT22;7388;51.078;13.740;2022-10-24T16:05:57;21.00;42.30
14604;DHT22;7388;51.078;13.740;2022-10-24T16:08:24;21.00;42.40
14604;DHT22;7388;51.078;13.740;2022-10-24T16:10:51;21.00;42.40
14604;DHT22;7388;51.078;13.740;2022-10-24T16:13:19;21.00;42.30
14604;DHT22;7388;51.078;13.740;2022-10-24T16:15:46;20.90;42.10
14604;DHT22;7388;51.078;13.740;2022-10-24T16:18:12;20.90;41.50
14604;DHT22;7388;51.078;13.740;2022-10-24T16:20:38;20.90;41.30
14604;DHT22;7388;51.078;13.740;2022-10-24T16:23:05;20.80;41.50
14604;DHT22;7388;51.078;13.740;2022-10-24T16:25:33;20.80;41.10
14604;DHT22;7388;51.078;13.740;2022-10-24T16:28:00;20.80;41.30
14604;DHT22;7388;51.078;13.740;2022-10-24T16:30:28;20.70;41.80
14604;DHT22;7388;51.078;13.740;2022-10-24T16:32:54;20.70;42.10
14604;DHT22;7388;51.078;13.740;2022-10-24T16:35:28;20.60;41.90
14604;DHT22;7388;51.078;13.740;2022-10-24T16:37:56;20.60;42.30
14604;DHT22;7388;51.078;13.740;2022-10-24T16:40:23;20.60;42.50
14604;DHT22;7388;51.078;13.740;2022-10-24T16:42:51;20.60;42.50
14604;DHT22;7388;51.078;13.740;2022-10-24T16:45:17;20.50;42.50
14604;DHT22;7388;51.078;13.740;2022-10-24T16:47:43;20.50;42.80
14604;DHT22;7388;51.078;13.740;2022-10-24T16:50:13;20.50;43.00
14604;DHT22;7388;51.078;13.740;2022-10-24T16:52:39;20.40;43.00
14604;DHT22;7388;51.078;13.740;2022-10-24T16:55:05;20.30;43.10
14604;DHT22;7388;51.078;13.740;2022-10-24T16:57:31;20.30;43.30
14604;DHT22;7388;51.078;13.740;2022-10-24T16:59:57;20.20;43.30
14604;DHT22;7388;51.078;13.740;2022-10-24T17:02:22;20.10;43.20
14604;DHT22;7388;51.078;13.740;2022-10-24T17:04:48;20.00;43.50
14604;DHT22;7388;51.078;13.740;2022-10-24T17:07:14;20.00;43.40
14604;DHT22;7388;51.078;13.740;2022-10-24T17:09:40;19.90;43.50
14604;DHT22;7388;51.078;13.740;2022-10-24T17:12:07;19.80;43.80
14604;DHT22;7388;51.078;13.740;2022-10-24T17:14:33;19.80;43.90
14604;DHT22;7388;51.078;13.740;2022-10-24T17:17:01;19.70;44.10
14604;DHT22;7388;51.078;13.740;2022-10-24T17:19:26;19.70;44.30
14604;DHT22;7388;51.078;13.740;2022-10-24T17:21:52;19.70;44.30
14604;DHT22;7388;51.078;13.740;2022-10-24T17:24:22;19.60;44.50
14604;DHT22;7388;51.078;13.740;2022-10-24T17:26:49;19.60;44.50
14604;DHT22;7388;51.078;13.740;2022-10-24T17:29:31;19.50;44.70
14604;DHT22;7388;51.078;13.740;2022-10-24T17:31:58;19.50;44.70
14604;DHT22;7388;51.078;13.740;2022-10-24T17:34:25;19.50;44.70
14604;DHT22;7388;51.078;13.740;2022-10-24T17:39:50;19.50;45.50
14604;DHT22;7388;51.078;13.740;2022-10-24T17:42:19;19.50;45.10
14604;DHT22;7388;51.078;13.740;2022-10-24T17:44:46;19.40;44.90
14604;DHT22;7388;51.078;13.740;2022-10-24T17:47:12;19.40;45.00
14604;DHT22;7388;51.078;13.740;2022-10-24T17:49:40;19.50;45.10
14604;DHT22;7388;51.078;13.740;2022-10-24T17:52:06;19.50;45.10
14604;DHT22;7388;51.078;13.740;2022-10-24T17:54:32;19.60;45.10
14604;DHT22;7388;51.078;13.740;2022-10-24T17:56:58;19.60;44.90
14604;DHT22;7388;51.078;13.740;2022-10-24T17:59:23;19.70;45.10
14604;DHT22;7388;51.078;13.740;2022-10-24T18:01:50;19.70;45.00
14604;DHT22;7388;51.078;13.740;2022-10-24T18:04:15;19.70;45.00
14604;DHT22;7388;51.078;13.740;2022-10-24T18:06:41;19.70;45.00
14604;DHT22;7388;51.078;13.740;2022-10-24T18:09:07;19.80;45.00